Time;durP1;ratioP1;P1;durP2;ratioP2;P2;SDS_P1;SDS_P2;PMS_P1;PMS_P2;Temp;Humidity;BMP_temperature;BMP_pressure;BME280_temperature;BME280_humidity;BME280_pressure;Samples;Min_cycle;Max_cycle;Signal;HPM_P1;HPM_P2
2022/08/11 00:01:24;;;;;;;1.52;1.38;;;21.50;99.90;;;;;;5042095;28;39003;-78
2022/08/11 00:03:55;;;;;;;4.00;1.92;;;21.50;99.90;;;;;;5043285;28;37855;-79
2022/08/11 00:06:34;;;;;;;3.53;1.90;;;21.50;99.90;;;;;;5030711;28;38211;-78
2022/08/11 00:09:02;;;;;;;3.42;1.77;;;21.50;99.90;;;;;;5026194;28;40552;-78
2022/08/11 00:11:35;;;;;;;3.75;1.92;;;21.50;99.90;;;;;;5030382;28;47417;-79
2022/08/11 00:14:03;;;;;;;4.70;1.95;;;21.40;99.90;;;;;;5027161;28;39836;-79
2022/08/11 00:16:30;;;;;;;2.58;1.52;;;21.50;99.90;;;;;;5033678;28;37370;-79
2022/08/11 00:18:59;;;;;;;2.78;1.70;;;21.50;99.90;;;;;;5033502;28;39993;-79
2022/08/11 00:21:27;;;;;;;2.55;1.50;;;21.40;99.90;;;;;;5040204;28;38783;-80
2022/08/11 00:23:59;;;;;;;2.50;1.52;;;21.40;99.90;;;;;;5038873;28;38272;-79
2022/08/11 00:26:27;;;;;;;3.83;1.85;;;21.40;99.90;;;;;;5037622;28;37452;-79
2022/08/11 00:28:54;;;;;;;2.47;1.88;;;21.40;99.90;;;;;;5035827;28;40534;-79
2022/08/11 00:31:30;;;;;;;2.33;1.67;;;21.40;99.90;;;;;;5025867;28;40780;-79
2022/08/11 00:33:59;;;;;;;2.35;1.50;;;21.30;99.90;;;;;;5031190;28;39575;-79
2022/08/11 00:36:37;;;;;;;2.83;1.83;;;21.30;99.90;;;;;;5043402;28;38615;-79
2022/08/11 00:39:05;;;;;;;1.60;1.35;;;21.30;99.90;;;;;;5030783;28;40110;-80
2022/08/11 00:42:05;;;;;;;5.07;1.67;;;21.30;99.90;;;;;;5032709;28;39054;-80
2022/08/11 00:44:36;;;;;;;3.72;1.77;;;21.20;99.90;;;;;;4978216;28;45891;-81
2022/08/11 00:47:40;;;;;;;2.25;1.73;;;21.20;99.90;;;;;;5037071;28;39150;-79
2022/08/11 00:50:34;;;;;;;3.40;1.90;;;21.10;99.90;;;;;;5001844;28;39523;-79
2022/08/11 00:53:45;;;;;;;2.47;1.95;;;21.10;99.90;;;;;;5029859;28;38192;-80
2022/08/11 00:56:26;;;;;;;2.50;1.60;;;21.00;99.90;;;;;;5062250;28;47145;-79
2022/08/11 00:59:19;;;;;;;2.45;1.85;;;21.00;99.90;;;;;;5037780;28;37258;-78
2022/08/11 01:02:16;;;;;;;2.53;1.95;;;20.90;99.90;;;;;;5026183;28;47558;-79
2022/08/11 01:05:00;;;;;;;2.70;1.83;;;20.90;99.90;;;;;;5020448;28;45783;-80
2022/08/11 01:08:08;;;;;;;3.30;1.80;;;20.90;99.90;;;;;;5031230;28;38677;-80
2022/08/11 01:11:11;;;;;;;2.53;1.88;;;20.90;99.90;;;;;;5000635;28;46849;-80
2022/08/11 01:13:59;;;;;;;2.65;1.90;;;20.90;99.90;;;;;;5052988;28;47007;-80
2022/08/11 01:16:25;;;;;;;2.65;1.67;;;20.90;99.90;;;;;;5041258;28;38938;-79
2022/08/11 01:19:28;;;;;;;2.85;1.95;;;20.80;99.90;;;;;;5041856;28;38780;-79
2022/08/11 01:22:34;;;;;;;3.40;1.90;;;20.80;99.90;;;;;;5022866;28;48083;-79
2022/08/11 01:25:41;;;;;;;6.43;2.30;;;20.80;99.90;;;;;;5012887;28;46243;-80
2022/08/11 01:28:46;;;;;;;3.60;1.88;;;20.70;99.90;;;;;;5017382;28;47012;-81
2022/08/11 01:31:31;;;;;;;3.67;2.17;;;20.70;99.90;;;;;;5039163;28;39912;-80
2022/08/11 01:34:16;;;;;;;2.90;1.88;;;20.70;99.90;;;;;;5034831;28;37998;-78
2022/08/11 01:37:07;;;;;;;5.05;2.15;;;20.60;99.90;;;;;;5014586;28;48196;-80
2022/08/11 01:39:48;;;;;;;4.30;2.10;;;20.50;99.90;;;;;;5018510;28;47124;-80
2022/08/11 01:46:00;;;;;;;5.60;1.90;;;20.50;99.90;;;;;;5032040;28;50606;-78
2022/08/11 01:49:00;;;;;;;2.33;2.05;;;20.40;99.90;;;;;;5036136;28;39818;-78
2022/08/11 01:51:58;;;;;;;5.97;2.10;;;20.40;99.90;;;;;;5020747;28;48212;-77
2022/08/11 01:54:32;;;;;;;3.83;2.00;;;20.40;99.90;;;;;;5059617;28;39672;-79
2022/08/11 01:57:09;;;;;;;4.40;2.20;;;20.30;99.90;;;;;;5034491;28;36888;-78
2022/08/11 01:59:47;;;;;;;5.93;2.35;;;20.30;99.90;;;;;;5036914;28;48091;-79
2022/08/11 02:03:09;;;;;;;3.45;2.17;;;20.30;99.90;;;;;;5029202;28;40040;-77
2022/08/11 02:06:00;;;;;;;4.63;2.10;;;20.20;99.90;;;;;;4972296;28;47255;-78
2022/08/11 02:08:50;;;;;;;3.10;2.15;;;20.20;99.90;;;;;;5028532;28;34914;-77
2022/08/11 02:11:32;;;;;;;5.57;1.85;;;20.20;99.90;;;;;;5012799;28;40248;-79
2022/08/11 02:14:12;;;;;;;2.67;2.00;;;20.20;99.90;;;;;;5015533;28;38862;-78
2022/08/11 02:17:05;;;;;;;2.90;1.90;;;20.10;99.90;;;;;;5032977;28;48504;-79
2022/08/11 02:26:03;;;;;;;2.47;1.70;;;20.00;99.90;;;;;;5028846;28;48992;-78
2022/08/11 02:29:06;;;;;;;3.40;1.88;;;20.00;99.90;;;;;;5028662;28;47111;-79
2022/08/11 02:34:57;;;;;;;3.80;2.10;;;19.90;99.90;;;;;;5030989;28;50101;-79
2022/08/11 02:37:29;;;;;;;6.70;2.10;;;19.90;99.90;;;;;;5050015;28;38938;-78
2022/08/11 02:39:59;;;;;;;2.85;1.90;;;19.90;99.90;;;;;;5047374;28;37059;-79
2022/08/11 02:42:34;;;;;;;3.42;1.83;;;19.90;99.90;;;;;;5046795;28;37829;-77
2022/08/11 02:45:31;;;;;;;6.00;1.90;;;19.90;99.90;;;;;;5034723;28;38212;-78
2022/08/11 02:51:19;;;;;;;5.18;2.60;;;19.80;99.90;;;;;;5031637;28;49457;-77
2022/08/11 02:53:48;;;;;;;5.03;1.70;;;19.80;99.90;;;;;;5025724;28;47427;-77
2022/08/11 02:56:50;;;;;;;4.05;1.75;;;19.80;99.90;;;;;;5013982;28;39412;-77
2022/08/11 02:59:49;;;;;;;2.50;1.73;;;19.80;99.90;;;;;;5015029;28;38966;-77
2022/08/11 03:02:30;;;;;;;4.10;1.88;;;19.80;99.90;;;;;;5016912;28;37423;-77
2022/08/11 03:05:10;;;;;;;4.00;2.10;;;19.70;99.90;;;;;;5019986;28;38065;-78
2022/08/11 03:07:46;;;;;;;5.60;2.20;;;19.70;99.90;;;;;;5019492;28;47227;-77
2022/08/11 03:10:18;;;;;;;3.88;2.50;;;19.70;99.90;;;;;;5027997;28;38779;-78
2022/08/11 03:16:44;;;;;;;2.90;2.03;;;19.60;99.90;;;;;;5023173;28;49413;-78
2022/08/11 03:19:11;;;;;;;3.47;2.10;;;19.60;99.90;;;;;;4995352;28;47164;-78
2022/08/11 03:21:45;;;;;;;2.67;2.00;;;19.60;99.90;;;;;;5009469;28;39224;-77
2022/08/11 03:24:21;;;;;;;3.20;1.70;;;19.60;99.90;;;;;;5028897;28;38845;-78
2022/08/11 03:26:59;;;;;;;2.58;2.00;;;19.60;99.90;;;;;;5026823;28;38245;-78
2022/08/11 03:29:36;;;;;;;2.25;1.80;;;19.60;99.90;;;;;;5014380;28;39044;-78
2022/08/11 03:32:03;;;;;;;2.15;1.70;;;19.60;99.90;;;;;;5020361;28;38678;-77
2022/08/11 03:34:31;;;;;;;2.30;1.80;;;19.60;99.90;;;;;;5012598;28;39804;-77
2022/08/11 03:37:49;;;;;;;3.92;1.85;;;19.60;99.90;;;;;;5017373;28;36994;-78
2022/08/11 03:43:26;;;;;;;3.22;1.80;;;19.50;99.90;;;;;;4983524;28;38541;-78
2022/08/11 03:46:09;;;;;;;3.97;2.00;;;19.40;99.90;;;;;;5026020;28;37900;-77
2022/08/11 03:48:50;;;;;;;3.20;1.90;;;19.30;99.90;;;;;;5020987;28;47712;-78
2022/08/11 03:51:46;;;;;;;2.95;2.00;;;19.20;99.90;;;;;;5034179;28;37782;-78
2022/08/11 03:54:40;;;;;;;2.38;1.65;;;19.20;99.90;;;;;;5017321;28;38532;-77
2022/08/11 03:57:43;;;;;;;3.92;1.52;;;19.20;99.90;;;;;;5023007;28;38444;-78
2022/08/11 04:00:28;;;;;;;3.20;2.03;;;19.20;99.90;;;;;;5019018;28;37372;-78
2022/08/11 04:03:19;;;;;;;3.95;2.42;;;19.10;99.90;;;;;;5026602;28;47197;-79
2022/08/11 04:05:48;;;;;;;2.83;1.77;;;19.10;99.90;;;;;;5031284;28;47066;-78
2022/08/11 04:08:51;;;;;;;2.40;1.88;;;19.10;99.90;;;;;;5031845;28;39606;-79
2022/08/11 04:11:38;;;;;;;6.40;2.00;;;19.10;99.90;;;;;;5020174;28;37726;-78
2022/08/11 04:17:36;;;;;;;2.25;1.83;;;19.10;99.90;;;;;;5016467;28;39031;-79
2022/08/11 04:20:23;;;;;;;2.53;1.80;;;19.10;99.90;;;;;;5019748;28;40875;-79
2022/08/11 04:23:26;;;;;;;2.78;1.90;;;19.00;99.90;;;;;;5028100;28;49037;-77
2022/08/11 04:26:13;;;;;;;;;;;18.90;99.90;;;;;;5020297;28;48724;-79
2022/08/11 04:28:59;;;;;;;4.45;2.50;;;18.80;99.90;;;;;;5068522;28;47361;-79
2022/08/11 04:31:38;;;;;;;4.78;1.80;;;18.80;99.90;;;;;;5027800;28;38321;-78
2022/08/11 04:34:39;;;;;;;2.67;2.25;;;18.70;99.90;;;;;;5031787;28;37467;-79
2022/08/11 04:37:35;;;;;;;2.33;2.00;;;18.70;99.90;;;;;;5029308;28;39190;-79
2022/08/11 04:40:39;;;;;;;4.22;2.22;;;18.70;99.90;;;;;;5031155;28;39235;-78
2022/08/11 04:43:42;;;;;;;5.32;2.40;;;18.70;99.90;;;;;;5028502;28;48880;-79
2022/08/11 04:46:26;;;;;;;;;;;18.70;99.90;;;;;;5043493;28;36420;-78
2022/08/11 05:01:39;;;;;;;4.15;2.50;;;18.80;99.90;;;;;;5011458;28;38558;-78
2022/08/11 05:07:33;;;;;;;3.10;2.30;;;18.80;99.90;;;;;;5010444;28;38712;-79
2022/08/11 05:10:17;;;;;;;4.50;2.80;;;18.80;99.90;;;;;;5005637;28;37203;-78
2022/08/11 05:27:09;;;;;;;2.83;2.13;;;18.80;99.90;;;;;;5023937;28;48494;-77
2022/08/11 05:36:47;;;;;;;4.03;2.60;;;18.90;99.90;;;;;;5028223;28;39020;-78
2022/08/11 05:56:40;;;;;;;;;;;19.30;99.90;;;;;;5034851;28;49129;-77
2022/08/11 05:59:16;;;;;;;5.43;2.92;;;19.40;99.90;;;;;;5046504;27;39629;-77
2022/08/11 06:01:43;;;;;;;3.58;2.65;;;19.40;99.90;;;;;;5048131;28;38243;-76
2022/08/11 06:04:18;;;;;;;5.13;2.53;;;19.50;99.90;;;;;;5042269;28;38553;-76
2022/08/11 06:06:50;;;;;;;2.65;2.45;;;19.60;99.90;;;;;;4998377;28;38062;-75
2022/08/11 06:09:44;;;;;;;4.30;2.72;;;19.60;99.90;;;;;;5026132;28;39237;-75
2022/08/11 06:12:31;;;;;;;4.47;3.40;;;19.70;99.90;;;;;;5003438;28;39014;-75
2022/08/11 06:15:01;;;;;;;8.88;2.90;;;19.80;99.90;;;;;;5010910;28;38920;-75
2022/08/11 06:17:32;;;;;;;4.15;2.85;;;19.90;99.90;;;;;;5016630;28;47949;-76
2022/08/11 06:20:04;;;;;;;7.47;3.35;;;19.90;99.90;;;;;;5006817;28;38688;-76
2022/08/11 06:22:32;;;;;;;6.13;2.85;;;20.00;99.90;;;;;;5009265;28;47010;-78
2022/08/11 06:25:00;;;;;;;2.50;2.30;;;20.00;99.90;;;;;;5005834;28;37795;-76
2022/08/11 06:27:30;;;;;;;6.10;2.90;;;20.10;99.90;;;;;;5014455;28;37435;-75
2022/08/11 06:29:57;;;;;;;4.43;2.70;;;20.10;99.90;;;;;;5019413;28;38510;-77
2022/08/11 06:32:26;;;;;;;4.60;2.85;;;20.30;99.90;;;;;;5024803;28;38490;-77
2022/08/11 06:35:14;;;;;;;3.47;2.58;;;20.40;99.90;;;;;;5024385;28;38381;-77
2022/08/11 06:38:02;;;;;;;6.53;2.92;;;20.50;99.90;;;;;;5008726;28;47409;-79
2022/08/11 06:43:51;;;;;;;7.38;2.90;;;20.60;99.90;;;;;;5016397;28;49296;-77
2022/08/11 06:46:37;;;;;;;7.32;3.08;;;20.70;99.90;;;;;;5025231;28;38048;-77
2022/08/11 06:52:16;;;;;;;3.17;2.67;;;21.10;99.90;;;;;;5026587;28;39527;-76
2022/08/11 06:54:56;;;;;;;5.97;2.70;;;21.30;99.90;;;;;;5023417;28;47568;-79
2022/08/11 07:03:09;;;;;;;5.80;2.80;;;22.10;99.90;;;;;;5027336;28;38777;-81
2022/08/11 07:05:49;;;;;;;5.13;2.70;;;22.30;99.90;;;;;;5021338;28;47341;-77
2022/08/11 07:17:20;;;;;;;4.45;2.67;;;23.10;99.90;;;;;;5029685;28;38599;-78
2022/08/11 07:31:48;;;;;;;14.07;2.50;;;24.10;99.90;;;;;;5024489;28;39329;-77
2022/08/11 07:34:23;;;;;;;;;;;24.40;99.90;;;;;;5030368;28;36278;-77
2022/08/11 07:36:53;;;;;;;5.80;2.72;;;24.60;99.90;;;;;;5041774;27;38255;-76
2022/08/11 07:39:30;;;;;;;4.88;2.67;;;25.00;99.90;;;;;;5052084;28;37319;-77
2022/08/11 07:41:58;;;;;;;4.53;2.08;;;25.10;99.90;;;;;;5026338;28;36691;-77
2022/08/11 07:44:28;;;;;;;2.78;2.33;;;25.30;99.90;;;;;;5026986;28;37494;-78
2022/08/11 07:52:36;;;;;;;7.72;2.65;;;25.30;99.90;;;;;;5023162;28;37887;-75
2022/08/11 07:55:06;;;;;;;5.07;2.38;;;25.50;99.90;;;;;;5017907;28;35931;-77
2022/08/11 08:19:47;;;;;;;4.72;2.92;;;27.20;99.90;;;;;;5020577;28;48861;-78
2022/08/11 08:22:20;;;;;;;5.07;2.38;;;27.30;99.90;;;;;;5021396;28;38106;-76
2022/08/11 08:24:47;;;;;;;4.03;2.00;;;27.50;99.90;;;;;;5024093;28;35436;-78
2022/08/11 08:27:14;;;;;;;3.47;2.45;;;27.60;99.90;;;;;;5022008;28;37115;-77
2022/08/11 08:32:31;;;;;;;5.70;2.70;;;27.90;99.90;;;;;;5024855;28;39788;-77
2022/08/11 08:34:58;;;;;;;2.92;2.15;;;28.00;99.90;;;;;;5022276;28;39894;-76
2022/08/11 08:37:25;;;;;;;4.55;2.33;;;28.10;99.90;;;;;;5024788;28;40521;-77
2022/08/11 08:39:53;;;;;;;4.53;2.03;;;27.90;99.90;;;;;;5051051;28;39651;-77
2022/08/11 08:42:25;;;;;;;5.72;2.72;;;28.00;99.90;;;;;;5017622;28;38437;-78
2022/08/11 08:45:04;;;;;;;5.75;2.42;;;28.30;99.90;;;;;;5023588;28;36757;-76
2022/08/11 08:47:35;;;;;;;9.23;2.00;;;28.40;99.90;;;;;;5047236;27;46932;-77
2022/08/11 08:50:06;;;;;;;5.95;2.58;;;28.50;99.90;;;;;;5021925;28;39569;-77
2022/08/11 08:52:40;;;;;;;11.40;2.55;;;28.40;99.90;;;;;;5022378;28;47380;-77
2022/08/11 08:55:11;;;;;;;2.63;1.90;;;28.50;99.90;;;;;;5022913;28;37121;-77
2022/08/11 08:57:40;;;;;;;3.42;2.30;;;28.70;99.90;;;;;;5018696;28;38563;-78
2022/08/11 09:00:07;;;;;;;17.70;2.55;;;28.90;99.90;;;;;;5021095;28;39582;-77
2022/08/11 09:02:34;;;;;;;6.53;2.55;;;28.80;99.90;;;;;;5026012;28;38248;-76
2022/08/11 09:05:02;;;;;;;6.97;2.30;;;29.00;99.90;;;;;;5032637;28;37943;-76
2022/08/11 09:07:30;;;;;;;4.65;2.20;;;29.30;99.90;;;;;;5011355;28;40985;-77
2022/08/11 09:09:57;;;;;;;5.38;2.20;;;29.10;99.90;;;;;;5004543;28;39967;-77
2022/08/11 09:12:29;;;;;;;7.63;2.80;;;28.80;99.90;;;;;;5006365;28;40541;-77
2022/08/11 09:15:00;;;;;;;7.32;2.13;;;29.10;99.90;;;;;;5015442;28;38981;-76
2022/08/11 09:17:29;;;;;;;4.22;1.70;;;29.30;99.90;;;;;;5011108;28;38877;-76
2022/08/11 09:19:59;;;;;;;4.15;1.77;;;29.20;99.90;;;;;;5022509;28;40457;-78
2022/08/11 09:28:00;;;;;;;8.63;1.73;;;29.70;99.90;;;;;;5013743;28;41569;-78
2022/08/11 09:30:27;;;;;;;5.20;2.08;;;29.90;99.90;;;;;;5020387;28;39672;-77
2022/08/11 09:32:56;;;;;;;4.18;2.13;;;30.10;99.90;;;;;;5029926;28;38235;-77
2022/08/11 09:35:28;;;;;;;4.65;2.03;;;30.20;99.90;;;;;;5032283;28;37528;-79
2022/08/11 09:40:48;;;;;;;3.75;2.08;;;30.50;99.90;;;;;;5002361;28;48836;-76
2022/08/11 09:46:05;;;;;;;4.60;1.83;;;30.70;99.90;;;;;;5027205;28;39193;-79
2022/08/11 09:48:39;;;;;;;3.50;1.70;;;30.70;99.90;;;;;;5027938;28;37182;-78
2022/08/11 09:51:07;;;;;;;3.20;1.88;;;30.90;99.90;;;;;;5010744;28;39660;-78
2022/08/11 09:53:37;;;;;;;6.15;2.22;;;31.00;99.90;;;;;;5014065;28;38753;-80
2022/08/11 09:58:51;;;;;;;2.47;1.80;;;31.30;99.90;;;;;;5006844;28;38552;-78
2022/08/11 10:01:28;;;;;;;2.78;1.67;;;31.40;99.90;;;;;;5006333;28;39468;-77
2022/08/11 10:04:07;;;;;;;3.60;1.95;;;31.50;99.90;;;;;;5010828;28;38522;-79
2022/08/11 10:09:23;;;;;;;6.82;1.85;;;31.60;99.90;;;;;;5011052;28;37739;-78
2022/08/11 10:11:52;;;;;;;5.28;2.13;;;31.70;99.90;;;;;;5013344;28;38823;-80
2022/08/11 10:17:07;;;;;;;7.00;2.10;;;31.60;99.90;;;;;;5012695;28;38721;-74
2022/08/11 10:19:37;;;;;;;2.92;1.67;;;31.70;99.90;;;;;;5014215;28;39058;-75
2022/08/11 10:27:41;;;;;;;2.63;1.88;;;32.00;99.90;;;;;;5036517;28;49144;-76
2022/08/11 10:35:42;;;;;;;4.68;2.03;;;31.70;99.90;;;;;;5027850;28;49201;-78
2022/08/11 10:38:12;;;;;;;2.15;1.40;;;31.70;99.90;;;;;;5044378;28;39059;-76
2022/08/11 10:40:43;;;;;;;4.68;1.90;;;31.70;99.90;;;;;;5026756;28;38271;-79
2022/08/11 10:43:13;;;;;;;6.15;1.65;;;32.10;99.90;;;;;;5022037;28;40862;-81
2022/08/11 10:48:33;;;;;;;6.20;1.90;;;32.40;99.90;;;;;;5036247;28;50294;-78
2022/08/11 10:51:12;;;;;;;2.38;2.15;;;32.40;99.90;;;;;;5038646;28;38109;-77
2022/08/11 10:59:17;;;;;;;4.60;1.55;;;32.40;99.90;;;;;;5022078;28;38749;-76
2022/08/11 11:01:44;;;;;;;7.50;1.42;;;32.60;99.90;;;;;;5024355;28;37795;-76
2022/08/11 11:04:21;;;;;;;2.33;1.27;;;32.40;99.90;;;;;;5026302;28;38821;-77
2022/08/11 11:07:12;;;;;;;2.10;1.60;;;32.50;99.90;;;;;;5027800;28;38702;-76
2022/08/11 11:09:53;;;;;;;3.67;1.53;;;31.90;99.90;;;;;;5026526;28;46430;-77
2022/08/11 11:18:06;;;;;;;3.70;1.30;;;31.90;99.90;;;;;;5031916;28;38267;-77
2022/08/11 11:20:39;;;;;;;1.55;1.27;;;31.90;99.90;;;;;;5033282;28;48547;-76
2022/08/11 11:23:22;;;;;;;3.45;1.45;;;32.00;99.90;;;;;;5035781;28;38022;-77
2022/08/11 11:26:13;;;;;;;2.53;1.27;;;32.30;99.90;;;;;;5030260;28;39388;-76
2022/08/11 11:29:14;;;;;;;3.90;1.60;;;32.50;99.90;;;;;;5029865;28;47089;-76
2022/08/11 11:31:47;;;;;;;3.67;1.60;;;32.90;99.90;;;;;;5032955;28;48700;-76
2022/08/11 11:34:57;;;;;;;3.83;1.48;;;32.70;99.90;;;;;;5028968;28;37852;-77
2022/08/11 11:37:23;;;;;;;6.45;1.58;;;32.50;99.90;;;;;;5034186;28;38873;-76
2022/08/11 11:39:51;;;;;;;2.58;1.30;;;32.60;99.90;;;;;;5032516;28;38856;-77
2022/08/11 11:42:19;;;;;;;3.13;1.38;;;32.80;99.90;;;;;;5026754;28;38816;-76
2022/08/11 11:44:46;;;;;;;3.53;1.60;;;33.20;99.90;;;;;;5033085;28;37785;-77
2022/08/11 11:47:14;;;;;;;5.88;1.60;;;33.10;99.90;;;;;;5028338;28;38645;-81
2022/08/11 11:49:42;;;;;;;3.53;1.55;;;32.70;99.90;;;;;;5030304;28;38299;-76
2022/08/11 11:52:14;;;;;;;5.85;1.50;;;32.50;99.90;;;;;;5022841;28;38741;-76
2022/08/11 11:54:42;;;;;;;2.65;1.20;;;32.50;99.90;;;;;;5065090;28;38022;-77
2022/08/11 12:02:42;;;;;;;4.47;1.50;;;32.60;99.90;;;;;;5027510;28;48539;-77
2022/08/11 12:05:10;;;;;;;4.18;1.25;;;32.80;99.90;;;;;;5056385;28;37922;-77
2022/08/11 12:10:24;;;;;;;3.22;1.20;;;32.70;99.90;;;;;;5021428;28;39976;-76
2022/08/11 12:15:36;;;;;;;3.38;1.40;;;33.30;99.90;;;;;;5025670;28;49593;-76
2022/08/11 12:18:04;;;;;;;4.28;1.60;;;33.30;99.90;;;;;;5032136;28;20085;-77
2022/08/11 12:20:31;;;;;;;1.63;1.30;;;33.30;99.90;;;;;;5032431;28;38261;-78
2022/08/11 12:28:29;;;;;;;3.80;1.50;;;33.30;99.90;;;;;;5026980;28;48616;-76
2022/08/11 12:30:56;;;;;;;2.70;1.42;;;33.30;99.90;;;;;;5031756;28;37271;-77
2022/08/11 12:33:22;;;;;;;2.20;1.63;;;33.70;99.90;;;;;;5026837;28;38049;-76
2022/08/11 12:35:57;;;;;;;4.63;1.33;;;33.70;99.90;;;;;;5031563;28;38655;-76
2022/08/11 12:38:23;;;;;;;3.83;1.58;;;33.60;99.90;;;;;;5035143;28;38729;-76
2022/08/11 12:46:36;;;;;;;4.05;1.70;;;33.70;99.90;;;;;;5026352;28;39072;-77
2022/08/11 12:52:00;;;;;;;2.83;1.40;;;33.60;99.90;;;;;;5023745;28;38680;-77
2022/08/11 12:54:36;;;;;;;4.72;1.85;;;33.80;99.90;;;;;;5047754;28;47196;-77
2022/08/11 13:05:57;;;;;;;1.77;1.50;;;33.30;99.90;;;;;;4962523;28;38625;-75
2022/08/11 13:08:25;;;;;;;1.42;1.33;;;33.60;99.90;;;;;;4948321;28;37764;-75
2022/08/11 13:13:41;;;;;;;4.70;1.40;;;33.60;99.70;;;;;;5021589;28;49538;-77
2022/08/11 13:16:08;;;;;;;2.35;1.50;;;33.30;98.90;;;;;;5016571;28;38621;-77
2022/08/11 13:18:37;;;;;;;3.08;1.40;;;32.70;99.90;;;;;;5025558;28;38150;-76
2022/08/11 13:21:04;;;;;;;5.05;1.40;;;32.80;99.20;;;;;;5015444;28;39550;-76
2022/08/11 13:23:30;;;;;;;3.08;1.23;;;33.20;99.00;;;;;;5051891;28;37699;-76
2022/08/11 13:25:57;;;;;;;1.60;1.45;;;33.40;98.30;;;;;;5021892;28;40644;-76
2022/08/11 13:28:23;;;;;;;4.60;1.60;;;33.30;97.40;;;;;;5023583;28;37380;-76
2022/08/11 13:33:43;;;;;;;1.70;1.48;;;33.40;97.20;;;;;;5013501;28;49254;-76
2022/08/11 13:36:10;;;;;;;1.92;1.20;;;33.50;99.90;;;;;;5013179;28;39971;-77
2022/08/11 13:38:40;;;;;;;2.47;1.42;;;33.60;98.70;;;;;;5024864;28;36987;-76
2022/08/11 13:41:36;;;;;;;2.88;1.30;;;33.60;96.90;;;;;;5020490;28;39082;-77
2022/08/11 13:43:54;;;;;;;2.45;1.50;;;33.40;99.40;;;;;;5022519;28;40810;-75
2022/08/11 13:46:25;;;;;;;2.72;1.20;;;33.50;99.90;;;;;;5019112;28;38872;-75
2022/08/11 13:48:52;;;;;;;4.25;1.25;;;33.60;99.10;;;;;;5024162;28;38719;-76
2022/08/11 13:51:35;;;;;;;3.58;1.33;;;33.40;98.20;;;;;;5021098;28;39488;-77
2022/08/11 13:54:09;;;;;;;2.40;1.20;;;33.30;99.00;;;;;;5030268;28;38768;-76
2022/08/11 13:56:38;;;;;;;2.03;1.30;;;33.40;97.30;;;;;;5026780;28;48472;-77
2022/08/11 13:59:07;;;;;;;4.38;1.40;;;33.00;99.40;;;;;;5039909;28;37886;-77
2022/08/11 14:01:39;;;;;;;3.45;1.27;;;32.90;98.90;;;;;;5022707;27;38756;-76
2022/08/11 14:04:12;;;;;;;4.82;1.40;;;32.90;99.90;;;;;;5014132;28;40685;-77
2022/08/11 14:06:49;;;;;;;3.83;1.55;;;33.10;98.20;;;;;;5021779;28;38382;-79
2022/08/11 14:09:24;;;;;;;4.75;1.50;;;33.10;96.40;;;;;;5041876;28;37225;-78
2022/08/11 14:14:42;;;;;;;3.30;1.50;;;33.10;95.20;;;;;;5020855;28;49281;-77
2022/08/11 14:17:09;;;;;;;4.13;1.23;;;33.10;94.90;;;;;;5017298;28;38021;-77
2022/08/11 14:19:39;;;;;;;1.48;1.30;;;32.90;94.40;;;;;;5023585;28;37917;-77
2022/08/11 14:22:06;;;;;;;2.50;1.70;;;32.90;98.50;;;;;;5026667;28;40208;-76
2022/08/11 14:24:42;;;;;;;1.80;1.30;;;33.00;96.10;;;;;;5031025;28;39301;-77
2022/08/11 14:27:11;;;;;;;2.95;1.67;;;32.90;99.40;;;;;;5020067;28;37889;-76
2022/08/11 14:29:40;;;;;;;3.58;1.90;;;32.80;97.90;;;;;;5023051;28;38131;-78
2022/08/11 14:32:10;;;;;;;2.30;1.48;;;32.90;96.00;;;;;;5028313;28;38480;-76
2022/08/11 14:34:42;;;;;;;2.03;1.30;;;32.80;94.50;;;;;;5051402;28;39089;-77
2022/08/11 14:37:20;;;;;;;3.20;1.35;;;32.60;95.00;;;;;;5064410;28;38894;-78
2022/08/11 14:39:53;;;;;;;1.92;1.20;;;32.60;94.80;;;;;;5034425;28;38067;-76
2022/08/11 14:48:03;;;;;;;6.50;1.30;;;33.00;98.00;;;;;;5022385;28;38479;-76
2022/08/11 14:50:32;;;;;;;2.28;1.65;;;33.00;94.90;;;;;;5063090;28;48065;-77
2022/08/11 14:53:00;;;;;;;2.42;1.23;;;33.00;95.10;;;;;;5026872;28;39852;-77
2022/08/11 14:58:25;;;;;;;1.45;1.30;;;32.80;93.50;;;;;;5027116;28;39348;-76
2022/08/11 15:00:54;;;;;;;1.95;1.40;;;32.80;95.80;;;;;;5034048;28;38677;-78
2022/08/11 15:03:21;;;;;;;3.45;1.48;;;32.80;95.40;;;;;;5048206;28;38753;-76
2022/08/11 15:05:51;;;;;;;2.70;1.63;;;32.90;96.40;;;;;;5055581;28;40843;-75
2022/08/11 15:08:19;;;;;;;1.77;1.20;;;33.00;95.30;;;;;;5037961;28;40202;-76
2022/08/11 15:10:48;;;;;;;2.88;1.27;;;33.00;97.70;;;;;;5042255;28;37760;-74
2022/08/11 15:13:20;;;;;;;1.20;1.10;;;33.00;96.10;;;;;;5073350;28;38247;-77
2022/08/11 15:18:33;;;;;;;4.35;1.40;;;32.60;96.00;;;;;;5047472;28;49053;-77
2022/08/11 15:37:45;;;;;;;1.98;1.38;;;31.90;96.90;;;;;;5042816;27;49044;-77
2022/08/11 15:46:01;;;;;;;4.15;1.73;;;32.00;95.00;;;;;;5044465;28;39699;-76
2022/08/11 15:48:34;;;;;;;4.03;1.60;;;31.90;95.50;;;;;;5041604;28;47288;-76
2022/08/11 15:51:11;;;;;;;1.90;1.27;;;32.00;97.20;;;;;;5045147;28;37920;-76
2022/08/11 15:53:48;;;;;;;3.88;2.45;;;32.10;98.60;;;;;;5038267;28;47163;-76
2022/08/11 15:56:16;;;;;;;3.55;1.70;;;32.30;96.50;;;;;;5056710;28;41442;-78
2022/08/11 16:04:19;;;;;;;6.15;2.35;;;32.00;96.80;;;;;;5039206;28;37869;-77
2022/08/11 16:07:03;;;;;;;5.53;4.28;;;31.90;97.80;;;;;;5043996;28;39187;-77
2022/08/11 16:09:43;;;;;;;3.33;1.85;;;32.00;99.10;;;;;;5037155;28;47431;-77
2022/08/11 16:12:13;;;;;;;2.83;1.80;;;31.90;96.30;;;;;;5074894;28;39477;-78
2022/08/11 16:17:32;;;;;;;4.13;2.58;;;31.90;99.00;;;;;;5042872;28;49305;-77
2022/08/11 16:19:59;;;;;;;7.78;4.03;;;31.90;99.20;;;;;;5042617;28;37652;-77
2022/08/11 16:22:38;;;;;;;5.85;3.60;;;31.90;99.20;;;;;;5042947;28;36870;-77
2022/08/11 16:25:08;;;;;;;4.93;2.40;;;31.60;98.60;;;;;;5044989;28;36163;-76
2022/08/11 16:27:42;;;;;;;4.43;2.40;;;31.70;98.30;;;;;;5071116;28;37820;-76
2022/08/11 16:30:09;;;;;;;4.55;3.45;;;31.70;99.90;;;;;;5041204;28;38401;-76
2022/08/11 16:32:40;;;;;;;3.67;2.38;;;31.60;99.90;;;;;;5042614;28;37803;-76
2022/08/11 16:40:42;;;;;;;4.82;3.03;;;31.50;99.90;;;;;;5042707;28;50056;-77
2022/08/11 16:48:48;;;;;;;3.85;2.00;;;31.20;99.90;;;;;;5040504;28;49329;-77
2022/08/11 16:51:14;;;;;;;3.08;1.73;;;31.00;99.90;;;;;;5045851;28;39639;-78
2022/08/11 16:53:44;;;;;;;6.75;3.80;;;30.80;99.90;;;;;;5043953;28;37105;-77
2022/08/11 16:56:15;;;;;;;3.40;1.67;;;30.90;99.90;;;;;;5035273;28;36328;-78
2022/08/11 17:01:32;;;;;;;2.47;1.65;;;30.70;99.90;;;;;;5037069;28;49676;-76
2022/08/11 17:18:03;;;;;;;1.77;1.38;;;30.40;99.90;;;;;;5018015;28;37863;-77
2022/08/11 17:20:30;;;;;;;3.65;1.27;;;30.30;99.90;;;;;;5033521;28;47855;-79
2022/08/11 17:25:44;;;;;;;2.03;1.35;;;30.00;99.90;;;;;;5021700;28;49102;-77
2022/08/11 17:28:12;;;;;;;5.80;1.92;;;30.00;99.90;;;;;;5024903;28;38190;-76
2022/08/11 17:36:14;;;;;;;5.32;1.35;;;29.80;99.90;;;;;;5024436;28;38347;-80
2022/08/11 17:38:42;;;;;;;6.43;1.67;;;29.80;99.90;;;;;;5017444;28;37265;-76
2022/08/11 17:49:27;;;;;;;3.22;1.58;;;29.60;99.90;;;;;;5021488;28;37925;-77
2022/08/11 18:00:12;;;;;;;4.20;1.52;;;29.30;99.90;;;;;;5019783;28;37913;-77
2022/08/11 18:05:30;;;;;;;2.17;1.50;;;29.20;99.90;;;;;;5020819;28;37954;-77
